createdAt,value
2023-01-21T00:01:25.876Z,-3.3
2023-01-21T00:04:25.877Z,-3.2
2023-01-21T00:07:25.891Z,-3.1
2023-01-21T00:10:25.912Z,-3.1
2023-01-21T00:13:25.892Z,-3
2023-01-21T00:16:25.891Z,-3
2023-01-21T00:19:25.896Z,-2.9
2023-01-21T00:22:25.896Z,-2.9
2023-01-21T00:25:25.904Z,-2.8
2023-01-21T00:28:25.925Z,-2.8
2023-01-21T00:31:25.985Z,-2.7
2023-01-21T00:34:25.910Z,-2.6
2023-01-21T00:37:25.899Z,-2.6
2023-01-21T00:40:25.910Z,-2.5
2023-01-21T00:43:25.898Z,-2.4
2023-01-21T00:46:25.956Z,-2.4
2023-01-21T00:49:25.903Z,-2.3
2023-01-21T00:52:25.912Z,-2.2
2023-01-21T00:55:25.905Z,-2.2
2023-01-21T00:58:25.925Z,-2.1
2023-01-21T01:01:25.949Z,-2.1
2023-01-21T01:04:25.975Z,-2
2023-01-21T01:07:25.958Z,-2
2023-01-21T01:10:25.966Z,-1.9
2023-01-21T01:13:25.987Z,-1.9
2023-01-21T01:16:26.012Z,-1.9
2023-01-21T01:19:26.010Z,-1.8
2023-01-21T01:22:26.053Z,-1.8
2023-01-21T01:25:26.034Z,-1.8
2023-01-21T01:28:26.046Z,-1.8
2023-01-21T01:31:26.107Z,-1.8
2023-01-21T01:34:26.057Z,-1.8
2023-01-21T01:37:26.061Z,-1.8
2023-01-21T01:40:26.087Z,-1.7
2023-01-21T01:43:26.068Z,-1.7
2023-01-21T01:46:26.120Z,-1.7
2023-01-21T01:49:26.083Z,-1.7
2023-01-21T01:52:26.079Z,-1.7
2023-01-21T01:55:26.082Z,-1.7
2023-01-21T01:58:26.115Z,-1.7
2023-01-21T02:01:26.138Z,-1.6
2023-01-21T02:04:26.103Z,-1.6
2023-01-21T02:07:26.109Z,-1.6
2023-01-21T02:10:26.107Z,-1.6
2023-01-21T02:13:26.112Z,-1.6
2023-01-21T02:16:26.193Z,-1.6
2023-01-21T02:19:26.119Z,-1.6
2023-01-21T02:22:26.120Z,-1.6
2023-01-21T02:25:26.127Z,-1.6
2023-01-21T02:28:26.129Z,-1.6
2023-01-21T02:31:26.153Z,-1.6
2023-01-21T02:34:26.174Z,-1.6
2023-01-21T02:37:26.147Z,-1.6
2023-01-21T02:40:26.148Z,-1.6
2023-01-21T02:43:26.158Z,-1.6
2023-01-21T02:46:26.204Z,-1.6
2023-01-21T02:49:26.180Z,-1.6
2023-01-21T02:52:26.209Z,-1.6
2023-01-21T02:55:26.181Z,-1.6
2023-01-21T02:58:26.187Z,-1.5
2023-01-21T03:01:26.189Z,-1.6
2023-01-21T03:04:26.193Z,-1.6
2023-01-21T03:07:26.195Z,-1.6
2023-01-21T03:10:26.227Z,-1.6
2023-01-21T03:13:26.208Z,-1.6
2023-01-21T03:16:26.255Z,-1.6
2023-01-21T03:19:26.208Z,-1.7
2023-01-21T03:22:26.230Z,-1.7
2023-01-21T03:25:26.227Z,-1.7
2023-01-21T03:28:26.258Z,-1.8
2023-01-21T03:31:26.264Z,-1.8
2023-01-21T03:34:26.229Z,-1.8
2023-01-21T03:37:26.238Z,-1.8
2023-01-21T03:40:26.241Z,-1.9
2023-01-21T03:43:26.250Z,-1.9
2023-01-21T03:46:26.285Z,-1.9
2023-01-21T03:49:26.256Z,-2
2023-01-21T03:52:26.293Z,-2
2023-01-21T03:55:26.266Z,-1.9
2023-01-21T03:58:26.272Z,-1.9
2023-01-21T04:01:26.280Z,-2
2023-01-21T04:04:26.313Z,-2
2023-01-21T04:07:26.295Z,-2.1
2023-01-21T04:10:26.306Z,-2.1
2023-01-21T04:13:26.306Z,-2.1
2023-01-21T04:16:26.329Z,-2.2
2023-01-21T04:19:26.313Z,-2.3
2023-01-21T04:22:26.331Z,-2.3
2023-01-21T04:25:26.317Z,-2.3
2023-01-21T04:28:26.318Z,-2.3
2023-01-21T04:31:26.404Z,-2.3
2023-01-21T04:34:26.324Z,-2.2
2023-01-21T04:37:26.336Z,-2.1
2023-01-21T04:40:26.365Z,-2.1
2023-01-21T04:43:26.337Z,-2.1
2023-01-21T04:46:26.340Z,-2.2
2023-01-21T04:49:26.339Z,-2.2
2023-01-21T04:52:26.350Z,-2.2
2023-01-21T04:55:26.562Z,-2.3
2023-01-21T04:58:26.378Z,-2.3
2023-01-21T05:01:26.374Z,-2.4
2023-01-21T05:04:26.364Z,-2.4
2023-01-21T05:07:26.368Z,-2.4
2023-01-21T05:10:26.372Z,-2.4
2023-01-21T05:13:26.367Z,-2.4
2023-01-21T05:16:26.413Z,-2.4
2023-01-21T05:19:26.381Z,-2.3
2023-01-21T05:22:26.390Z,-2.4
2023-01-21T05:25:26.393Z,-2.4
2023-01-21T05:28:26.402Z,-2.4
2023-01-21T05:31:26.457Z,-2.4
2023-01-21T05:34:26.426Z,-2.5
2023-01-21T05:37:26.413Z,-2.6
2023-01-21T05:40:26.417Z,-2.6
2023-01-21T05:43:26.433Z,-2.7
2023-01-21T05:46:26.562Z,-2.7
2023-01-21T05:49:26.430Z,-2.7
2023-01-21T05:52:26.463Z,-2.7
2023-01-21T05:55:26.443Z,-2.6
2023-01-21T05:58:26.445Z,-2.5
2023-01-21T06:01:26.451Z,-2.5
2023-01-21T06:04:26.453Z,-2.4
2023-01-21T06:07:26.460Z,-2.4
2023-01-21T06:10:26.489Z,-2.3
2023-01-21T06:13:26.465Z,-2.3
2023-01-21T06:16:26.470Z,-2.3
2023-01-21T06:19:26.469Z,-2.3
2023-01-21T06:22:26.477Z,-2.3
2023-01-21T06:25:26.475Z,-2.3
2023-01-21T06:28:26.518Z,-2.3
2023-01-21T06:31:26.569Z,-2.3
2023-01-21T06:34:26.489Z,-2.3
2023-01-21T06:37:26.496Z,-2.3
2023-01-21T06:40:26.510Z,-2.3
2023-01-21T06:43:26.512Z,-2.3
2023-01-21T06:46:26.671Z,-2.3
2023-01-21T06:49:26.520Z,-2.3
2023-01-21T06:52:26.535Z,-2.3
2023-01-21T06:55:26.529Z,-2.3
2023-01-21T06:58:26.541Z,-2.3
2023-01-21T07:01:26.561Z,-2.3
2023-01-21T07:04:26.579Z,-2.3
2023-01-21T07:07:26.547Z,-2.3
2023-01-21T07:10:26.556Z,-2.3
2023-01-21T07:13:26.574Z,-2.3
2023-01-21T07:16:26.606Z,-2.3
2023-01-21T07:19:26.574Z,-2.3
2023-01-21T07:22:26.592Z,-2.3
2023-01-21T07:25:26.574Z,-2.3
2023-01-21T07:28:26.579Z,-2.3
2023-01-21T07:31:26.712Z,-2.3
2023-01-21T07:34:26.580Z,-2.3
2023-01-21T07:37:26.592Z,-2.4
2023-01-21T07:40:26.656Z,-2.5
2023-01-21T07:43:26.608Z,-2.6
2023-01-21T07:46:26.652Z,-2.6
2023-01-21T07:49:26.610Z,-2.6
2023-01-21T07:52:26.611Z,-2.5
2023-01-21T07:55:26.633Z,-2.4
2023-01-21T07:58:26.645Z,-2.4
2023-01-21T08:01:26.647Z,-2.3
2023-01-21T08:04:26.728Z,-2.3
2023-01-21T08:07:26.740Z,-2.2
2023-01-21T08:10:26.800Z,-2.2
2023-01-21T08:13:26.635Z,-2.1
2023-01-21T08:16:26.742Z,-2.2
2023-01-21T08:19:26.662Z,-2.1
2023-01-21T08:22:26.657Z,-2
2023-01-21T08:25:26.666Z,-2
2023-01-21T08:28:26.665Z,-2
2023-01-21T08:31:26.741Z,-2
2023-01-21T08:34:26.712Z,-1.9
2023-01-21T08:37:26.686Z,-1.9
2023-01-21T08:40:26.697Z,-1.8
2023-01-21T08:43:26.694Z,-1.9
2023-01-21T08:46:26.707Z,-1.9
2023-01-21T08:49:26.712Z,-2
2023-01-21T08:52:26.741Z,-2
2023-01-21T08:55:26.741Z,-1.9
2023-01-21T08:58:26.721Z,-1.9
2023-01-21T09:01:26.718Z,-1.8
2023-01-21T09:04:26.727Z,-1.8
2023-01-21T09:07:26.728Z,-1.7
2023-01-21T09:10:26.766Z,-1.7
2023-01-21T09:13:29.067Z,-1.6
2023-01-21T09:16:26.799Z,-1.7
2023-01-21T09:19:26.748Z,-1.7
2023-01-21T09:22:26.753Z,-1.7
2023-01-21T09:25:26.761Z,-1.6
2023-01-21T09:28:26.784Z,-1.6
2023-01-21T09:31:26.820Z,-1.5
2023-01-21T09:34:26.766Z,-1.5
2023-01-21T09:37:26.776Z,-1.4
2023-01-21T09:40:26.774Z,-1.4
2023-01-21T09:43:26.782Z,-1.3
2023-01-21T09:46:26.815Z,-1.3
2023-01-21T09:49:26.781Z,-1.2
2023-01-21T09:52:26.787Z,-1.1
2023-01-21T09:55:26.790Z,-1.2
2023-01-21T09:58:26.790Z,-1.2
2023-01-21T10:01:26.858Z,-1.1
2023-01-21T10:04:26.884Z,-1
2023-01-21T10:07:26.811Z,-0.9
2023-01-21T10:10:26.810Z,-0.9
2023-01-21T10:13:26.814Z,-0.8
2023-01-21T10:16:26.874Z,-0.7
2023-01-21T10:19:26.822Z,-0.7
2023-01-21T10:22:26.892Z,-0.8
2023-01-21T10:25:26.826Z,-0.7
2023-01-21T10:28:26.837Z,-0.7
2023-01-21T10:31:26.978Z,-0.6
2023-01-21T10:34:26.834Z,-0.6
2023-01-21T10:37:26.842Z,-0.7
2023-01-21T10:40:26.874Z,-0.8
2023-01-21T10:43:26.848Z,-0.8
2023-01-21T10:46:26.893Z,-0.9
2023-01-21T10:49:26.859Z,-0.7
2023-01-21T10:52:26.873Z,-0.4
2023-01-21T10:55:26.873Z,-0.3
2023-01-21T10:58:26.903Z,-0.2
2023-01-21T11:01:26.921Z,-0.2
2023-01-21T11:04:26.891Z,-0.4
2023-01-21T11:07:26.886Z,-0.3
2023-01-21T11:10:26.891Z,-0.5
2023-01-21T11:13:26.903Z,-0.4
2023-01-21T11:16:26.915Z,-0.4
2023-01-21T11:19:26.892Z,-0.4
2023-01-21T11:22:26.893Z,-0.4
2023-01-21T11:25:26.905Z,-0.4
2023-01-21T11:28:26.918Z,-0.4
2023-01-21T11:31:27.046Z,-0.5
2023-01-21T11:34:26.943Z,-0.3
2023-01-21T11:37:26.930Z,-0.4
2023-01-21T11:40:26.938Z,-0.3
2023-01-21T11:43:26.930Z,-0.2
2023-01-21T11:46:27.017Z,-0.2
2023-01-21T11:49:26.932Z,-0.3
2023-01-21T11:52:26.966Z,-0.3
2023-01-21T11:55:26.949Z,-0.4
2023-01-21T11:58:27.958Z,-0.2
2023-01-21T12:01:26.955Z,-0.2
2023-01-21T12:04:27.230Z,-0.1
2023-01-21T12:07:26.974Z,-0.2
2023-01-21T12:10:27.136Z,-0.3
2023-01-21T12:13:26.973Z,-0.4
2023-01-21T12:16:26.996Z,-0.3
2023-01-21T12:19:26.994Z,-0.4
2023-01-21T12:22:26.987Z,-0.3
2023-01-21T12:25:26.993Z,-0.3
2023-01-21T12:28:27.023Z,-0.4
2023-01-21T12:31:27.071Z,-0.3
2023-01-21T12:34:27.004Z,-0.4
2023-01-21T12:37:27.004Z,-0.2
2023-01-21T12:40:27.009Z,-0.3
2023-01-21T12:43:27.009Z,-0.2
2023-01-21T12:46:27.065Z,-0.2
2023-01-21T12:49:27.022Z,-0.2
2023-01-21T12:52:27.041Z,-0.2
2023-01-21T12:55:27.038Z,-0.2
2023-01-21T12:58:27.027Z,-0.2
2023-01-21T13:01:27.038Z,-0.2
2023-01-21T13:04:29.102Z,-0.2
2023-01-21T13:07:27.043Z,-0.2
2023-01-21T13:10:27.051Z,-0.2
2023-01-21T13:13:27.057Z,-0.1
2023-01-21T13:16:27.182Z,-0.2
2023-01-21T13:19:27.063Z,-0.2
2023-01-21T13:22:27.087Z,-0.2
2023-01-21T13:25:27.070Z,-0.2
2023-01-21T13:28:27.085Z,-0.2
2023-01-21T13:31:27.198Z,-0.1
2023-01-21T13:34:27.090Z,-0.2
2023-01-21T13:37:27.089Z,-0.2
2023-01-21T13:40:27.115Z,-0.2
2023-01-21T13:43:27.100Z,-0.2
2023-01-21T13:46:27.101Z,-0.2
2023-01-21T13:49:27.102Z,-0.2
2023-01-21T13:52:27.108Z,-0.3
2023-01-21T13:55:27.109Z,-0.2
2023-01-21T13:58:27.148Z,-0.2
2023-01-21T14:01:27.118Z,-0.3
2023-01-21T14:04:27.131Z,-0.3
2023-01-21T14:07:27.130Z,-0.3
2023-01-21T14:10:27.131Z,-0.3
2023-01-21T14:13:27.137Z,-0.3
2023-01-21T14:16:27.197Z,-0.2
2023-01-21T14:19:27.136Z,-0.2
2023-01-21T14:22:27.140Z,-0.3
2023-01-21T14:25:27.148Z,-0.3
2023-01-21T14:28:27.155Z,-0.4
2023-01-21T14:31:27.214Z,-0.4
2023-01-21T14:34:27.186Z,-0.4
2023-01-21T14:37:27.157Z,-0.5
2023-01-21T14:40:27.161Z,-0.4
2023-01-21T14:43:27.167Z,-0.4
2023-01-21T14:46:27.169Z,-0.4
2023-01-21T14:49:27.170Z,-0.4
2023-01-21T14:52:27.198Z,-0.4
2023-01-21T14:55:27.194Z,-0.4
2023-01-21T14:58:27.180Z,-0.3
2023-01-21T15:01:27.266Z,-0.3
2023-01-21T15:04:27.187Z,-0.3
2023-01-21T15:07:27.183Z,-0.4
2023-01-21T15:10:27.213Z,-0.3
2023-01-21T15:13:27.181Z,-0.4
2023-01-21T15:16:27.249Z,-0.3
2023-01-21T15:19:27.193Z,-0.3
2023-01-21T15:22:27.203Z,-0.3
2023-01-21T15:25:27.214Z,-0.2
2023-01-21T15:28:27.254Z,-0.3
2023-01-21T15:31:27.338Z,-0.3
2023-01-21T15:34:27.252Z,-0.2
2023-01-21T15:37:27.264Z,-0.2
2023-01-21T15:40:27.270Z,-0.2
2023-01-21T15:43:27.294Z,-0.1
2023-01-21T15:46:27.371Z,-0.2
2023-01-21T15:49:27.298Z,-0.1
2023-01-21T15:52:27.301Z,-0.1
2023-01-21T15:55:27.297Z,-0.1
2023-01-21T15:58:27.298Z,-0.1
2023-01-21T16:01:27.327Z,-0.1
2023-01-21T16:04:27.332Z,-0.1
2023-01-21T16:07:27.315Z,-0.1
2023-01-21T16:10:27.324Z,-0.1
2023-01-21T16:13:27.331Z,-0.1
2023-01-21T16:16:27.324Z,-0.1
2023-01-21T16:19:27.345Z,0
2023-01-21T16:22:27.363Z,0
2023-01-21T16:25:27.342Z,0
2023-01-21T16:28:27.349Z,0
2023-01-21T16:31:27.549Z,0.1
2023-01-21T16:34:27.352Z,0.1
2023-01-21T16:37:27.372Z,0.1
2023-01-21T16:40:27.395Z,0.2
2023-01-21T16:43:27.396Z,0.2
2023-01-21T16:46:27.464Z,0.2
2023-01-21T16:49:27.387Z,0.2
2023-01-21T16:52:27.394Z,0.2
2023-01-21T16:55:27.401Z,0.2
2023-01-21T16:58:27.436Z,0.2
2023-01-21T17:01:27.436Z,0.2
2023-01-21T17:04:27.417Z,0.2
2023-01-21T17:07:27.415Z,0.2
2023-01-21T17:10:27.434Z,0.2
2023-01-21T17:13:27.432Z,0.2
2023-01-21T17:16:27.556Z,0.2
2023-01-21T17:19:27.435Z,0.1
2023-01-21T17:22:27.440Z,0.1
2023-01-21T17:25:27.445Z,0.1
2023-01-21T17:28:27.442Z,0.1
2023-01-21T17:31:27.549Z,0.1
2023-01-21T17:34:27.483Z,0
2023-01-21T17:37:27.456Z,0.1
2023-01-21T17:40:27.490Z,0
2023-01-21T17:43:27.462Z,0
2023-01-21T17:46:27.561Z,0
2023-01-21T17:49:27.482Z,-0.1
2023-01-21T17:52:27.515Z,-0.1
2023-01-21T17:55:27.495Z,-0.1
2023-01-21T17:58:27.501Z,-0.1
2023-01-21T18:01:27.599Z,-0.1
2023-01-21T18:04:27.515Z,-0.1
2023-01-21T18:07:27.522Z,0
2023-01-21T18:10:27.556Z,-0.1
2023-01-21T18:13:27.536Z,-0.1
2023-01-21T18:16:27.666Z,-0.1
2023-01-21T18:19:27.550Z,-0.1
2023-01-21T18:22:27.551Z,-0.1
2023-01-21T18:25:27.560Z,-0.1
2023-01-21T18:28:27.581Z,-0.1
2023-01-21T18:31:27.677Z,-0.1
2023-01-21T18:34:27.559Z,-0.1
2023-01-21T18:37:27.567Z,-0.2
2023-01-21T18:40:27.570Z,-0.2
2023-01-21T18:43:27.578Z,-0.2
2023-01-21T18:46:27.708Z,-0.2
2023-01-21T18:49:27.577Z,-0.3
2023-01-21T18:52:27.583Z,-0.3
2023-01-21T18:55:27.608Z,-0.3
2023-01-21T18:58:27.591Z,-0.3
2023-01-21T19:01:27.664Z,-0.3
2023-01-21T19:04:27.618Z,-0.4
2023-01-21T19:07:27.594Z,-0.5
2023-01-21T19:10:27.596Z,-0.5
2023-01-21T19:13:27.599Z,-0.4
2023-01-21T19:16:27.656Z,-0.5
2023-01-21T19:19:27.613Z,-0.5
2023-01-21T19:22:27.639Z,-0.4
2023-01-21T19:25:27.625Z,-0.4
2023-01-21T19:28:27.620Z,-0.4
2023-01-21T19:31:27.796Z,-0.3
2023-01-21T19:34:27.637Z,-0.4
2023-01-21T19:37:27.639Z,-0.4
2023-01-21T19:40:27.746Z,-0.4
2023-01-21T19:43:27.635Z,-0.4
2023-01-21T19:46:27.660Z,-0.4
2023-01-21T19:49:27.645Z,-0.4
2023-01-21T19:52:27.646Z,-0.4
2023-01-21T19:55:27.656Z,-0.4
2023-01-21T19:58:27.693Z,-0.4
2023-01-21T20:01:27.673Z,-0.3
2023-01-21T20:04:27.671Z,-0.4
2023-01-21T20:07:27.677Z,-0.4
2023-01-21T20:10:27.676Z,-0.4
2023-01-21T20:13:27.714Z,-0.4
2023-01-21T20:16:27.786Z,-0.4
2023-01-21T20:19:27.688Z,-0.5
2023-01-21T20:22:27.695Z,-0.6
2023-01-21T20:25:27.692Z,-0.5
2023-01-21T20:28:27.708Z,-0.5
2023-01-21T20:31:27.772Z,-0.5
2023-01-21T20:34:27.782Z,-0.5
2023-01-21T20:37:27.719Z,-0.5
2023-01-21T20:40:27.716Z,-0.4
2023-01-21T20:43:27.733Z,-0.4
2023-01-21T20:46:27.744Z,-0.4
2023-01-21T20:49:27.737Z,-0.4
2023-01-21T20:52:27.804Z,-0.4
2023-01-21T20:55:27.751Z,-0.4
2023-01-21T20:58:27.751Z,-0.4
2023-01-21T21:01:27.773Z,-0.4
2023-01-21T21:04:27.756Z,-0.4
2023-01-21T21:07:27.762Z,-0.4
2023-01-21T21:10:27.784Z,-0.4
2023-01-21T21:13:27.771Z,-0.4
2023-01-21T21:16:27.881Z,-0.4
2023-01-21T21:19:27.780Z,-0.4
2023-01-21T21:22:27.798Z,-0.4
2023-01-21T21:25:27.790Z,-0.3
2023-01-21T21:28:27.811Z,-0.3
2023-01-21T21:31:27.868Z,-0.3
2023-01-21T21:34:27.806Z,-0.3
2023-01-21T21:37:27.803Z,-0.4
2023-01-21T21:40:27.799Z,-0.3
2023-01-21T21:43:27.801Z,-0.3
2023-01-21T21:46:27.839Z,-0.3
2023-01-21T21:49:27.813Z,-0.3
2023-01-21T21:52:27.820Z,-0.3
2023-01-21T21:55:27.829Z,-0.3
2023-01-21T21:58:27.835Z,-0.3
2023-01-21T22:01:30.225Z,-0.3
2023-01-21T22:04:27.854Z,-0.3
2023-01-21T22:07:27.839Z,-0.3
2023-01-21T22:10:27.843Z,-0.3
2023-01-21T22:13:27.847Z,-0.3
2023-01-21T22:16:27.927Z,-0.4
2023-01-21T22:19:27.841Z,-0.4
2023-01-21T22:22:27.876Z,-0.3
2023-01-21T22:25:27.848Z,-0.4
2023-01-21T22:28:27.849Z,-0.3
2023-01-21T22:31:27.970Z,-0.3
2023-01-21T22:34:27.850Z,-0.3
2023-01-21T22:37:27.854Z,-0.3
2023-01-21T22:40:27.884Z,-0.3
2023-01-21T22:43:27.853Z,-0.3
2023-01-21T22:46:27.891Z,-0.3
2023-01-21T22:49:27.858Z,-0.3
2023-01-21T22:52:27.858Z,-0.3
2023-01-21T22:55:27.861Z,-0.3
2023-01-21T22:58:27.886Z,-0.3
2023-01-21T23:01:27.968Z,-0.3
2023-01-21T23:04:27.868Z,-0.2
2023-01-21T23:07:27.887Z,-0.2
2023-01-21T23:10:27.879Z,-0.2
2023-01-21T23:13:27.864Z,-0.2
2023-01-21T23:16:27.894Z,-0.2
2023-01-21T23:19:27.869Z,-0.2
2023-01-21T23:22:27.897Z,-0.2
2023-01-21T23:25:27.883Z,-0.1
2023-01-21T23:28:27.902Z,-0.2
2023-01-21T23:31:27.924Z,-0.1
2023-01-21T23:34:27.918Z,-0.1
2023-01-21T23:37:27.889Z,-0.1
2023-01-21T23:40:27.877Z,-0.1
2023-01-21T23:43:27.891Z,-0.1
2023-01-21T23:46:27.950Z,-0.1
2023-01-21T23:49:27.875Z,-0.1
2023-01-21T23:52:27.921Z,-0.1
2023-01-21T23:55:27.881Z,-0.1
2023-01-21T23:58:27.880Z,-0.1
